sensor_id;sensor_type;location;lat;lon;timestamp;P1;durP1;ratioP1;P2;durP2;ratioP2
22814;SDS011;11574;51.058;13.712;2022-10-16T00:02:29;17.77;;;13.57;;
22814;SDS011;11574;51.058;13.712;2022-10-16T00:07:32;19.37;;;14.60;;
22814;SDS011;11574;51.058;13.712;2022-10-16T00:12:34;19.00;;;14.70;;
22814;SDS011;11574;51.058;13.712;2022-10-16T00:17:37;21.53;;;13.77;;
22814;SDS011;11574;51.058;13.712;2022-10-16T00:22:39;16.93;;;13.07;;
22814;SDS011;11574;51.058;13.712;2022-10-16T00:27:42;17.97;;;13.57;;
22814;SDS011;11574;51.058;13.712;2022-10-16T00:32:45;19.00;;;14.47;;
22814;SDS011;11574;51.058;13.712;2022-10-16T00:37:47;16.50;;;14.03;;
22814;SDS011;11574;51.058;13.712;2022-10-16T00:42:49;16.57;;;13.17;;
22814;SDS011;11574;51.058;13.712;2022-10-16T00:47:53;19.13;;;14.43;;
22814;SDS011;11574;51.058;13.712;2022-10-16T00:52:56;16.27;;;13.40;;
22814;SDS011;11574;51.058;13.712;2022-10-16T00:57:59;20.40;;;14.83;;
22814;SDS011;11574;51.058;13.712;2022-10-16T01:03:03;18.07;;;13.53;;
22814;SDS011;11574;51.058;13.712;2022-10-16T01:08:08;17.17;;;13.60;;
22814;SDS011;11574;51.058;13.712;2022-10-16T01:13:11;17.83;;;13.77;;
22814;SDS011;11574;51.058;13.712;2022-10-16T01:18:16;20.53;;;14.30;;
22814;SDS011;11574;51.058;13.712;2022-10-16T01:23:21;16.90;;;13.97;;
22814;SDS011;11574;51.058;13.712;2022-10-16T01:28:30;16.83;;;13.17;;
22814;SDS011;11574;51.058;13.712;2022-10-16T01:33:37;16.67;;;13.60;;
22814;SDS011;11574;51.058;13.712;2022-10-16T01:38:41;16.70;;;13.17;;
22814;SDS011;11574;51.058;13.712;2022-10-16T01:43:48;18.27;;;12.53;;
22814;SDS011;11574;51.058;13.712;2022-10-16T01:48:51;15.33;;;12.47;;
22814;SDS011;11574;51.058;13.712;2022-10-16T01:53:54;19.30;;;13.03;;
22814;SDS011;11574;51.058;13.712;2022-10-16T01:59:06;15.50;;;12.03;;
22814;SDS011;11574;51.058;13.712;2022-10-16T02:04:10;17.07;;;12.17;;
22814;SDS011;11574;51.058;13.712;2022-10-16T02:09:13;16.80;;;12.77;;
22814;SDS011;11574;51.058;13.712;2022-10-16T02:14:19;15.17;;;12.83;;
22814;SDS011;11574;51.058;13.712;2022-10-16T02:19:24;14.77;;;13.20;;
22814;SDS011;11574;51.058;13.712;2022-10-16T02:24:27;19.73;;;13.90;;
22814;SDS011;11574;51.058;13.712;2022-10-16T02:29:33;17.70;;;13.93;;
22814;SDS011;11574;51.058;13.712;2022-10-16T02:34:37;15.33;;;13.43;;
22814;SDS011;11574;51.058;13.712;2022-10-16T02:39:41;16.13;;;13.13;;
22814;SDS011;11574;51.058;13.712;2022-10-16T02:44:45;15.67;;;12.90;;
22814;SDS011;11574;51.058;13.712;2022-10-16T02:49:47;14.80;;;12.53;;
22814;SDS011;11574;51.058;13.712;2022-10-16T02:54:49;18.33;;;13.77;;
22814;SDS011;11574;51.058;13.712;2022-10-16T02:59:53;15.10;;;12.93;;
22814;SDS011;11574;51.058;13.712;2022-10-16T03:04:55;20.33;;;12.97;;
22814;SDS011;11574;51.058;13.712;2022-10-16T03:09:57;15.67;;;12.37;;
22814;SDS011;11574;51.058;13.712;2022-10-16T03:15:01;14.10;;;11.57;;
22814;SDS011;11574;51.058;13.712;2022-10-16T03:20:04;14.17;;;12.40;;
22814;SDS011;11574;51.058;13.712;2022-10-16T03:25:06;15.60;;;12.57;;
22814;SDS011;11574;51.058;13.712;2022-10-16T03:30:10;15.30;;;12.57;;
22814;SDS011;11574;51.058;13.712;2022-10-16T03:35:13;14.00;;;12.20;;
22814;SDS011;11574;51.058;13.712;2022-10-16T03:40:15;15.73;;;12.57;;
22814;SDS011;11574;51.058;13.712;2022-10-16T03:45:19;13.77;;;11.87;;
22814;SDS011;11574;51.058;13.712;2022-10-16T03:50:21;16.30;;;11.63;;
22814;SDS011;11574;51.058;13.712;2022-10-16T03:55:23;14.63;;;11.37;;
22814;SDS011;11574;51.058;13.712;2022-10-16T04:00:28;15.17;;;11.87;;
22814;SDS011;11574;51.058;13.712;2022-10-16T04:05:30;13.60;;;11.57;;
22814;SDS011;11574;51.058;13.712;2022-10-16T04:10:32;14.87;;;12.17;;
22814;SDS011;11574;51.058;13.712;2022-10-16T04:15:36;14.80;;;12.10;;
22814;SDS011;11574;51.058;13.712;2022-10-16T04:20:38;17.13;;;12.27;;
22814;SDS011;11574;51.058;13.712;2022-10-16T04:25:40;18.93;;;13.50;;
22814;SDS011;11574;51.058;13.712;2022-10-16T04:30:44;15.03;;;12.43;;
22814;SDS011;11574;51.058;13.712;2022-10-16T04:35:46;14.73;;;12.70;;
22814;SDS011;11574;51.058;13.712;2022-10-16T04:40:48;20.40;;;13.07;;
22814;SDS011;11574;51.058;13.712;2022-10-16T04:45:52;15.40;;;12.17;;
22814;SDS011;11574;51.058;13.712;2022-10-16T04:50:54;20.43;;;13.20;;
22814;SDS011;11574;51.058;13.712;2022-10-16T04:55:56;18.23;;;13.77;;
22814;SDS011;11574;51.058;13.712;2022-10-16T05:01:00;16.57;;;14.07;;
22814;SDS011;11574;51.058;13.712;2022-10-16T05:06:04;18.07;;;13.77;;
22814;SDS011;11574;51.058;13.712;2022-10-16T05:11:06;16.23;;;13.43;;
22814;SDS011;11574;51.058;13.712;2022-10-16T05:16:10;14.97;;;13.37;;
22814;SDS011;11574;51.058;13.712;2022-10-16T05:21:12;19.10;;;13.07;;
22814;SDS011;11574;51.058;13.712;2022-10-16T05:26:14;15.00;;;11.63;;
22814;SDS011;11574;51.058;13.712;2022-10-16T05:31:18;14.90;;;12.43;;
22814;SDS011;11574;51.058;13.712;2022-10-16T05:36:21;13.93;;;12.33;;
22814;SDS011;11574;51.058;13.712;2022-10-16T05:41:23;16.77;;;12.63;;
22814;SDS011;11574;51.058;13.712;2022-10-16T05:46:27;13.53;;;12.13;;
22814;SDS011;11574;51.058;13.712;2022-10-16T05:51:29;15.70;;;12.20;;
22814;SDS011;11574;51.058;13.712;2022-10-16T05:56:31;14.93;;;12.20;;
22814;SDS011;11574;51.058;13.712;2022-10-16T06:01:35;13.27;;;11.23;;
22814;SDS011;11574;51.058;13.712;2022-10-16T06:06:37;14.13;;;10.97;;
22814;SDS011;11574;51.058;13.712;2022-10-16T06:11:39;13.37;;;10.70;;
22814;SDS011;11574;51.058;13.712;2022-10-16T06:16:43;12.20;;;10.43;;
22814;SDS011;11574;51.058;13.712;2022-10-16T06:21:45;12.23;;;9.93;;
22814;SDS011;11574;51.058;13.712;2022-10-16T06:26:48;11.80;;;9.70;;
22814;SDS011;11574;51.058;13.712;2022-10-16T06:31:51;9.77;;;8.77;;
22814;SDS011;11574;51.058;13.712;2022-10-16T06:36:53;10.47;;;8.97;;
22814;SDS011;11574;51.058;13.712;2022-10-16T06:41:56;11.17;;;9.73;;
22814;SDS011;11574;51.058;13.712;2022-10-16T06:46:59;11.30;;;9.87;;
22814;SDS011;11574;51.058;13.712;2022-10-16T06:52:01;12.00;;;10.40;;
22814;SDS011;11574;51.058;13.712;2022-10-16T06:57:04;14.03;;;10.93;;
22814;SDS011;11574;51.058;13.712;2022-10-16T07:02:08;12.37;;;10.57;;
22814;SDS011;11574;51.058;13.712;2022-10-16T07:07:10;11.90;;;10.20;;
22814;SDS011;11574;51.058;13.712;2022-10-16T07:12:13;16.00;;;10.63;;
22814;SDS011;11574;51.058;13.712;2022-10-16T07:17:16;11.17;;;10.00;;
22814;SDS011;11574;51.058;13.712;2022-10-16T07:22:18;11.20;;;10.00;;
22814;SDS011;11574;51.058;13.712;2022-10-16T07:27:20;11.37;;;10.20;;
22814;SDS011;11574;51.058;13.712;2022-10-16T07:32:25;12.13;;;9.90;;
22814;SDS011;11574;51.058;13.712;2022-10-16T07:37:27;10.50;;;9.40;;
22814;SDS011;11574;51.058;13.712;2022-10-16T07:42:31;14.03;;;10.13;;
22814;SDS011;11574;51.058;13.712;2022-10-16T07:47:35;13.90;;;10.33;;
22814;SDS011;11574;51.058;13.712;2022-10-16T07:52:37;12.23;;;10.43;;
22814;SDS011;11574;51.058;13.712;2022-10-16T07:57:39;14.27;;;11.00;;
22814;SDS011;11574;51.058;13.712;2022-10-16T08:02:43;16.47;;;9.50;;
22814;SDS011;11574;51.058;13.712;2022-10-16T08:07:48;11.47;;;9.33;;
22814;SDS011;11574;51.058;13.712;2022-10-16T08:12:50;10.90;;;9.50;;
22814;SDS011;11574;51.058;13.712;2022-10-16T08:18:00;9.37;;;8.47;;
22814;SDS011;11574;51.058;13.712;2022-10-16T08:23:03;11.23;;;8.53;;
22814;SDS011;11574;51.058;13.712;2022-10-16T08:28:05;9.60;;;8.53;;
22814;SDS011;11574;51.058;13.712;2022-10-16T08:33:09;12.27;;;9.53;;
22814;SDS011;11574;51.058;13.712;2022-10-16T08:38:11;10.97;;;9.63;;
22814;SDS011;11574;51.058;13.712;2022-10-16T08:43:26;11.70;;;9.43;;
22814;SDS011;11574;51.058;13.712;2022-10-16T08:48:34;10.40;;;9.17;;
22814;SDS011;11574;51.058;13.712;2022-10-16T08:53:40;10.43;;;8.50;;
22814;SDS011;11574;51.058;13.712;2022-10-16T08:58:45;8.10;;;7.23;;
22814;SDS011;11574;51.058;13.712;2022-10-16T09:09:16;5.15;;;4.43;;
22814;SDS011;11574;51.058;13.712;2022-10-16T09:19:44;6.10;;;4.00;;
22814;SDS011;11574;51.058;13.712;2022-10-16T09:24:49;5.47;;;4.10;;
22814;SDS011;11574;51.058;13.712;2022-10-16T09:29:51;3.60;;;3.17;;
22814;SDS011;11574;51.058;13.712;2022-10-16T09:34:54;5.18;;;3.33;;
22814;SDS011;11574;51.058;13.712;2022-10-16T09:39:58;4.20;;;2.95;;
22814;SDS011;11574;51.058;13.712;2022-10-16T09:45:01;3.40;;;3.10;;
22814;SDS011;11574;51.058;13.712;2022-10-16T09:50:04;3.60;;;3.00;;
22814;SDS011;11574;51.058;13.712;2022-10-16T09:55:14;3.77;;;3.13;;
22814;SDS011;11574;51.058;13.712;2022-10-16T10:00:16;3.80;;;3.33;;
22814;SDS011;11574;51.058;13.712;2022-10-16T10:05:20;3.25;;;2.80;;
22814;SDS011;11574;51.058;13.712;2022-10-16T10:10:24;3.17;;;1.85;;
22814;SDS011;11574;51.058;13.712;2022-10-16T10:15:27;1.17;;;0.98;;
22814;SDS011;11574;51.058;13.712;2022-10-16T10:20:31;0.60;;;0.60;;
22814;SDS011;11574;51.058;13.712;2022-10-16T10:25:44;1.10;;;0.70;;
22814;SDS011;11574;51.058;13.712;2022-10-16T10:30:49;1.60;;;0.60;;
22814;SDS011;11574;51.058;13.712;2022-10-16T10:35:56;0.90;;;0.60;;
22814;SDS011;11574;51.058;13.712;2022-10-16T10:41:08;2.10;;;0.65;;
22814;SDS011;11574;51.058;13.712;2022-10-16T10:46:18;0.88;;;0.60;;
22814;SDS011;11574;51.058;13.712;2022-10-16T10:51:24;4.03;;;1.63;;
22814;SDS011;11574;51.058;13.712;2022-10-16T10:56:35;1.63;;;0.70;;
22814;SDS011;11574;51.058;13.712;2022-10-16T11:01:41;4.03;;;0.88;;
22814;SDS011;11574;51.058;13.712;2022-10-16T11:06:47;1.60;;;0.60;;
22814;SDS011;11574;51.058;13.712;2022-10-16T11:11:53;1.00;;;0.60;;
22814;SDS011;11574;51.058;13.712;2022-10-16T11:16:56;1.00;;;0.63;;
22814;SDS011;11574;51.058;13.712;2022-10-16T11:22:01;0.93;;;0.50;;
22814;SDS011;11574;51.058;13.712;2022-10-16T11:27:07;0.63;;;0.30;;
22814;SDS011;11574;51.058;13.712;2022-10-16T11:32:13;0.77;;;0.50;;
22814;SDS011;11574;51.058;13.712;2022-10-16T11:37:19;1.33;;;0.73;;
22814;SDS011;11574;51.058;13.712;2022-10-16T11:42:25;0.30;;;0.30;;
22814;SDS011;11574;51.058;13.712;2022-10-16T11:47:31;1.92;;;0.70;;
22814;SDS011;11574;51.058;13.712;2022-10-16T11:52:36;1.15;;;0.80;;
22814;SDS011;11574;51.058;13.712;2022-10-16T11:57:44;1.17;;;0.80;;
22814;SDS011;11574;51.058;13.712;2022-10-16T12:02:49;1.90;;;1.05;;
22814;SDS011;11574;51.058;13.712;2022-10-16T12:07:55;0.98;;;0.80;;
22814;SDS011;11574;51.058;13.712;2022-10-16T12:13:02;3.63;;;2.40;;
22814;SDS011;11574;51.058;13.712;2022-10-16T12:18:07;1.30;;;0.52;;
22814;SDS011;11574;51.058;13.712;2022-10-16T12:23:16;1.10;;;0.70;;
22814;SDS011;11574;51.058;13.712;2022-10-16T12:28:27;1.20;;;0.70;;
22814;SDS011;11574;51.058;13.712;2022-10-16T12:33:32;1.10;;;0.73;;
22814;SDS011;11574;51.058;13.712;2022-10-16T12:38:35;4.53;;;0.70;;
22814;SDS011;11574;51.058;13.712;2022-10-16T12:43:40;1.15;;;0.68;;
22814;SDS011;11574;51.058;13.712;2022-10-16T12:48:43;2.60;;;0.65;;
22814;SDS011;11574;51.058;13.712;2022-10-16T12:53:57;2.05;;;1.13;;
22814;SDS011;11574;51.058;13.712;2022-10-16T12:59:04;5.32;;;1.00;;
22814;SDS011;11574;51.058;13.712;2022-10-16T13:04:13;1.52;;;0.82;;
22814;SDS011;11574;51.058;13.712;2022-10-16T13:09:27;2.38;;;0.70;;
22814;SDS011;11574;51.058;13.712;2022-10-16T13:14:39;3.13;;;1.10;;
22814;SDS011;11574;51.058;13.712;2022-10-16T13:19:47;3.15;;;1.00;;
22814;SDS011;11574;51.058;13.712;2022-10-16T13:24:58;1.65;;;0.90;;
22814;SDS011;11574;51.058;13.712;2022-10-16T13:30:11;1.83;;;1.20;;
22814;SDS011;11574;51.058;13.712;2022-10-16T13:35:21;1.53;;;1.00;;
22814;SDS011;11574;51.058;13.712;2022-10-16T13:40:24;1.87;;;0.70;;
22814;SDS011;11574;51.058;13.712;2022-10-16T13:45:27;4.77;;;1.30;;
22814;SDS011;11574;51.058;13.712;2022-10-16T13:50:30;3.50;;;1.00;;
22814;SDS011;11574;51.058;13.712;2022-10-16T13:55:32;1.00;;;0.80;;
22814;SDS011;11574;51.058;13.712;2022-10-16T14:00:36;2.83;;;1.67;;
22814;SDS011;11574;51.058;13.712;2022-10-16T14:05:40;4.57;;;2.13;;
22814;SDS011;11574;51.058;13.712;2022-10-16T14:10:47;8.57;;;3.30;;
22814;SDS011;11574;51.058;13.712;2022-10-16T14:15:51;8.13;;;4.10;;
22814;SDS011;11574;51.058;13.712;2022-10-16T14:21:02;1.83;;;1.30;;
22814;SDS011;11574;51.058;13.712;2022-10-16T14:26:05;6.97;;;4.40;;
22814;SDS011;11574;51.058;13.712;2022-10-16T14:31:22;8.63;;;3.90;;
22814;SDS011;11574;51.058;13.712;2022-10-16T14:36:26;12.37;;;7.30;;
22814;SDS011;11574;51.058;13.712;2022-10-16T14:41:29;6.33;;;3.83;;
22814;SDS011;11574;51.058;13.712;2022-10-16T14:46:33;4.40;;;2.97;;
22814;SDS011;11574;51.058;13.712;2022-10-16T14:51:36;13.13;;;7.40;;
22814;SDS011;11574;51.058;13.712;2022-10-16T14:56:42;2.50;;;2.00;;
22814;SDS011;11574;51.058;13.712;2022-10-16T15:01:47;4.97;;;1.83;;
22814;SDS011;11574;51.058;13.712;2022-10-16T15:06:49;2.83;;;1.83;;
22814;SDS011;11574;51.058;13.712;2022-10-16T15:11:51;64.53;;;46.30;;
22814;SDS011;11574;51.058;13.712;2022-10-16T15:16:55;29.37;;;20.53;;
22814;SDS011;11574;51.058;13.712;2022-10-16T15:21:57;12.23;;;8.73;;
22814;SDS011;11574;51.058;13.712;2022-10-16T15:26:59;6.03;;;1.70;;
22814;SDS011;11574;51.058;13.712;2022-10-16T15:32:03;4.47;;;1.57;;
22814;SDS011;11574;51.058;13.712;2022-10-16T15:37:05;3.17;;;1.47;;
22814;SDS011;11574;51.058;13.712;2022-10-16T15:42:07;3.37;;;2.20;;
22814;SDS011;11574;51.058;13.712;2022-10-16T15:47:11;7.03;;;2.10;;
22814;SDS011;11574;51.058;13.712;2022-10-16T15:52:13;5.97;;;2.57;;
22814;SDS011;11574;51.058;13.712;2022-10-16T15:57:16;2.80;;;1.10;;
22814;SDS011;11574;51.058;13.712;2022-10-16T16:02:19;1.90;;;1.00;;
22814;SDS011;11574;51.058;13.712;2022-10-16T16:07:21;2.80;;;1.10;;
22814;SDS011;11574;51.058;13.712;2022-10-16T16:12:24;4.80;;;1.70;;
22814;SDS011;11574;51.058;13.712;2022-10-16T16:17:27;3.53;;;1.60;;
22814;SDS011;11574;51.058;13.712;2022-10-16T16:22:29;4.47;;;1.70;;
22814;SDS011;11574;51.058;13.712;2022-10-16T16:27:32;3.40;;;1.80;;
22814;SDS011;11574;51.058;13.712;2022-10-16T16:32:35;3.87;;;2.37;;
22814;SDS011;11574;51.058;13.712;2022-10-16T16:37:38;3.93;;;2.13;;
22814;SDS011;11574;51.058;13.712;2022-10-16T16:42:40;3.33;;;1.93;;
22814;SDS011;11574;51.058;13.712;2022-10-16T16:47:43;3.40;;;2.30;;
22814;SDS011;11574;51.058;13.712;2022-10-16T16:52:45;6.63;;;2.60;;
22814;SDS011;11574;51.058;13.712;2022-10-16T16:57:48;4.57;;;2.30;;
22814;SDS011;11574;51.058;13.712;2022-10-16T17:02:51;7.47;;;2.27;;
22814;SDS011;11574;51.058;13.712;2022-10-16T17:07:53;4.47;;;2.10;;
22814;SDS011;11574;51.058;13.712;2022-10-16T17:12:56;3.07;;;2.10;;
22814;SDS011;11574;51.058;13.712;2022-10-16T17:17:59;4.63;;;2.90;;
22814;SDS011;11574;51.058;13.712;2022-10-16T17:23:01;8.17;;;3.30;;
22814;SDS011;11574;51.058;13.712;2022-10-16T17:28:04;5.23;;;3.60;;
22814;SDS011;11574;51.058;13.712;2022-10-16T17:33:08;6.87;;;3.00;;
22814;SDS011;11574;51.058;13.712;2022-10-16T17:38:10;8.80;;;2.77;;
22814;SDS011;11574;51.058;13.712;2022-10-16T17:43:13;7.30;;;3.43;;
22814;SDS011;11574;51.058;13.712;2022-10-16T17:48:16;13.47;;;4.10;;
22814;SDS011;11574;51.058;13.712;2022-10-16T17:53:18;5.97;;;3.60;;
22814;SDS011;11574;51.058;13.712;2022-10-16T17:58:20;6.37;;;3.33;;
22814;SDS011;11574;51.058;13.712;2022-10-16T18:03:24;9.03;;;3.50;;
22814;SDS011;11574;51.058;13.712;2022-10-16T18:08:27;6.37;;;3.43;;
22814;SDS011;11574;51.058;13.712;2022-10-16T18:13:29;5.53;;;3.37;;
22814;SDS011;11574;51.058;13.712;2022-10-16T18:18:33;11.80;;;3.73;;
22814;SDS011;11574;51.058;13.712;2022-10-16T18:23:35;13.30;;;4.70;;
22814;SDS011;11574;51.058;13.712;2022-10-16T18:28:38;7.07;;;4.50;;
22814;SDS011;11574;51.058;13.712;2022-10-16T18:33:41;6.43;;;3.93;;
22814;SDS011;11574;51.058;13.712;2022-10-16T18:38:47;6.50;;;4.33;;
22814;SDS011;11574;51.058;13.712;2022-10-16T18:43:49;8.63;;;4.80;;
22814;SDS011;11574;51.058;13.712;2022-10-16T18:48:57;6.73;;;4.30;;
22814;SDS011;11574;51.058;13.712;2022-10-16T18:54:02;8.87;;;3.97;;
22814;SDS011;11574;51.058;13.712;2022-10-16T18:59:05;7.70;;;4.47;;
22814;SDS011;11574;51.058;13.712;2022-10-16T19:04:12;7.87;;;4.70;;
22814;SDS011;11574;51.058;13.712;2022-10-16T19:09:15;10.80;;;5.40;;
22814;SDS011;11574;51.058;13.712;2022-10-16T19:14:20;10.33;;;5.40;;
22814;SDS011;11574;51.058;13.712;2022-10-16T19:19:24;12.03;;;5.50;;
22814;SDS011;11574;51.058;13.712;2022-10-16T19:24:26;9.20;;;5.67;;
22814;SDS011;11574;51.058;13.712;2022-10-16T19:29:28;9.93;;;6.03;;
22814;SDS011;11574;51.058;13.712;2022-10-16T19:34:33;8.60;;;5.90;;
22814;SDS011;11574;51.058;13.712;2022-10-16T19:39:35;8.47;;;5.63;;
22814;SDS011;11574;51.058;13.712;2022-10-16T19:44:37;9.77;;;5.83;;
22814;SDS011;11574;51.058;13.712;2022-10-16T19:49:41;8.73;;;5.90;;
22814;SDS011;11574;51.058;13.712;2022-10-16T19:54:43;11.67;;;5.77;;
22814;SDS011;11574;51.058;13.712;2022-10-16T19:59:45;8.00;;;5.40;;
22814;SDS011;11574;51.058;13.712;2022-10-16T20:04:51;10.50;;;5.37;;
22814;SDS011;11574;51.058;13.712;2022-10-16T20:09:53;9.93;;;5.10;;
22814;SDS011;11574;51.058;13.712;2022-10-16T20:14:56;11.93;;;5.63;;
22814;SDS011;11574;51.058;13.712;2022-10-16T20:19:59;7.37;;;5.37;;
22814;SDS011;11574;51.058;13.712;2022-10-16T20:25:01;16.63;;;5.77;;
22814;SDS011;11574;51.058;13.712;2022-10-16T20:30:04;14.80;;;5.97;;
22814;SDS011;11574;51.058;13.712;2022-10-16T20:35:08;8.90;;;5.93;;
22814;SDS011;11574;51.058;13.712;2022-10-16T20:40:10;10.00;;;5.47;;
22814;SDS011;11574;51.058;13.712;2022-10-16T20:45:13;9.40;;;5.47;;
22814;SDS011;11574;51.058;13.712;2022-10-16T20:50:16;9.07;;;5.70;;
22814;SDS011;11574;51.058;13.712;2022-10-16T20:55:18;8.43;;;5.03;;
22814;SDS011;11574;51.058;13.712;2022-10-16T21:00:20;8.23;;;4.80;;
22814;SDS011;11574;51.058;13.712;2022-10-16T21:05:24;8.33;;;4.70;;
22814;SDS011;11574;51.058;13.712;2022-10-16T21:10:28;13.20;;;4.80;;
22814;SDS011;11574;51.058;13.712;2022-10-16T21:15:30;6.83;;;4.60;;
22814;SDS011;11574;51.058;13.712;2022-10-16T21:20:33;11.07;;;4.60;;
22814;SDS011;11574;51.058;13.712;2022-10-16T21:25:35;7.67;;;3.70;;
22814;SDS011;11574;51.058;13.712;2022-10-16T21:30:38;9.63;;;4.00;;
22814;SDS011;11574;51.058;13.712;2022-10-16T21:35:41;7.33;;;3.60;;
22814;SDS011;11574;51.058;13.712;2022-10-16T21:40:43;8.20;;;3.30;;
22814;SDS011;11574;51.058;13.712;2022-10-16T21:45:45;8.93;;;3.80;;
22814;SDS011;11574;51.058;13.712;2022-10-16T21:50:49;7.57;;;3.83;;
22814;SDS011;11574;51.058;13.712;2022-10-16T21:55:51;4.73;;;3.70;;
22814;SDS011;11574;51.058;13.712;2022-10-16T22:00:53;9.13;;;4.23;;
22814;SDS011;11574;51.058;13.712;2022-10-16T22:06:00;7.23;;;3.50;;
22814;SDS011;11574;51.058;13.712;2022-10-16T22:11:03;5.87;;;3.43;;
22814;SDS011;11574;51.058;13.712;2022-10-16T22:16:05;5.80;;;3.70;;
22814;SDS011;11574;51.058;13.712;2022-10-16T22:21:09;5.67;;;3.60;;
22814;SDS011;11574;51.058;13.712;2022-10-16T22:26:11;5.67;;;3.80;;
22814;SDS011;11574;51.058;13.712;2022-10-16T22:31:14;9.90;;;4.00;;
22814;SDS011;11574;51.058;13.712;2022-10-16T22:36:17;6.53;;;3.90;;
22814;SDS011;11574;51.058;13.712;2022-10-16T22:41:19;11.30;;;4.00;;
22814;SDS011;11574;51.058;13.712;2022-10-16T22:46:24;9.37;;;4.47;;
22814;SDS011;11574;51.058;13.712;2022-10-16T22:51:27;6.47;;;4.20;;
22814;SDS011;11574;51.058;13.712;2022-10-16T22:56:29;4.87;;;3.80;;
22814;SDS011;11574;51.058;13.712;2022-10-16T23:01:33;4.50;;;3.57;;
22814;SDS011;11574;51.058;13.712;2022-10-16T23:06:36;5.80;;;3.43;;
22814;SDS011;11574;51.058;13.712;2022-10-16T23:11:39;6.67;;;3.63;;
22814;SDS011;11574;51.058;13.712;2022-10-16T23:16:41;8.83;;;3.70;;
22814;SDS011;11574;51.058;13.712;2022-10-16T23:21:44;6.87;;;4.30;;
22814;SDS011;11574;51.058;13.712;2022-10-16T23:26:46;4.90;;;3.70;;
22814;SDS011;11574;51.058;13.712;2022-10-16T23:31:49;9.07;;;4.50;;
22814;SDS011;11574;51.058;13.712;2022-10-16T23:36:52;7.23;;;4.17;;
22814;SDS011;11574;51.058;13.712;2022-10-16T23:41:54;8.53;;;3.60;;
22814;SDS011;11574;51.058;13.712;2022-10-16T23:46:56;6.20;;;3.87;;
22814;SDS011;11574;51.058;13.712;2022-10-16T23:52:00;5.57;;;3.87;;
22814;SDS011;11574;51.058;13.712;2022-10-16T23:57:02;10.40;;;3.90;;
